Time;durP1;ratioP1;P1;durP2;ratioP2;P2;SDS_P1;SDS_P2;PMS_P1;PMS_P2;Temp;Humidity;BMP_temperature;BMP_pressure;BME280_temperature;BME280_humidity;BME280_pressure;Samples;Min_cycle;Max_cycle;Signal;HPM_P1;HPM_P2
2021/09/03 00:01:09;;;;;;;8.85;6.03;;;19.30;78.90;;;;;;5105679;27;20046;-70
2021/09/03 00:03:35;;;;;;;9.32;6.68;;;19.30;79.00;;;;;;5088033;27;20046;-69
2021/09/03 00:06:01;;;;;;;8.05;5.95;;;19.30;78.70;;;;;;5106951;27;20047;-70
2021/09/03 00:08:27;;;;;;;8.63;5.70;;;19.30;78.70;;;;;;5086248;27;20641;-69
2021/09/03 00:10:53;;;;;;;7.57;5.53;;;19.20;78.60;;;;;;5106214;27;20039;-66
2021/09/03 00:13:19;;;;;;;9.02;6.38;;;19.20;78.90;;;;;;5102394;27;20400;-66
2021/09/03 00:15:44;;;;;;;8.43;6.35;;;19.20;79.00;;;;;;5105086;27;20088;-66
2021/09/03 00:18:11;;;;;;;7.93;5.55;;;19.20;78.80;;;;;;5104569;27;20054;-66
2021/09/03 00:20:37;;;;;;;7.32;5.88;;;19.20;78.80;;;;;;5106037;27;20039;-66
2021/09/03 00:23:03;;;;;;;6.78;5.82;;;19.20;78.60;;;;;;5101295;27;20066;-69
2021/09/03 00:25:29;;;;;;;9.93;6.05;;;19.20;78.80;;;;;;5104641;27;20049;-69
2021/09/03 00:27:54;;;;;;;12.35;5.78;;;19.20;79.20;;;;;;5107893;27;20043;-66
2021/09/03 00:30:20;;;;;;;9.38;6.05;;;19.10;79.00;;;;;;5120922;27;20039;-66
2021/09/03 00:32:46;;;;;;;10.07;6.43;;;19.10;79.30;;;;;;5103267;27;20042;-68
2021/09/03 00:35:11;;;;;;;9.10;5.47;;;19.10;79.30;;;;;;5104717;27;20433;-69
2021/09/03 00:37:37;;;;;;;8.38;6.57;;;19.10;79.70;;;;;;5105809;27;20105;-66
2021/09/03 00:40:05;;;;;;;7.68;5.55;;;19.10;79.80;;;;;;5083041;27;20941;-69
2021/09/03 00:42:30;;;;;;;8.88;5.97;;;19.10;79.70;;;;;;5106810;27;20195;-68
2021/09/03 00:44:56;;;;;;;7.53;6.15;;;19.10;79.50;;;;;;5100534;28;20146;-66
2021/09/03 00:47:22;;;;;;;7.15;5.68;;;19.10;79.60;;;;;;5101039;28;20044;-66
2021/09/03 00:49:48;;;;;;;9.05;6.38;;;19.10;79.60;;;;;;5103185;28;20036;-66
2021/09/03 00:52:14;;;;;;;6.95;5.40;;;19.10;79.70;;;;;;5100775;28;20424;-70
2021/09/03 00:54:40;;;;;;;8.40;5.88;;;19.10;79.70;;;;;;5100591;28;20630;-67
2021/09/03 00:57:06;;;;;;;9.15;5.50;;;19.00;79.60;;;;;;5100382;28;20079;-67
2021/09/03 00:59:32;;;;;;;9.50;5.15;;;19.00;79.50;;;;;;5096341;28;20051;-69
2021/09/03 01:01:58;;;;;;;7.15;6.05;;;19.10;79.60;;;;;;5100937;28;20894;-66
2021/09/03 01:04:24;;;;;;;7.75;5.85;;;19.00;79.30;;;;;;5101062;28;20043;-69
2021/09/03 01:06:49;;;;;;;7.47;5.45;;;19.00;79.10;;;;;;5098198;28;20044;-66
2021/09/03 01:09:15;;;;;;;7.05;5.97;;;18.90;79.30;;;;;;5100350;28;20039;-66
2021/09/03 01:11:41;;;;;;;8.50;6.32;;;18.90;79.40;;;;;;5100456;28;20375;-66
2021/09/03 01:14:07;;;;;;;6.63;5.88;;;18.90;79.30;;;;;;5099636;28;20445;-68
2021/09/03 01:16:32;;;;;;;6.03;4.95;;;18.80;79.40;;;;;;5096753;28;20048;-69
2021/09/03 01:18:59;;;;;;;6.63;5.88;;;18.80;79.70;;;;;;5097749;28;20055;-66
2021/09/03 01:21:26;;;;;;;8.10;5.72;;;18.80;79.90;;;;;;5101039;28;20083;-66
2021/09/03 01:23:52;;;;;;;7.95;5.88;;;18.80;79.90;;;;;;5099141;28;20051;-66
2021/09/03 01:26:18;;;;;;;5.60;4.95;;;18.80;80.10;;;;;;5100551;28;20051;-68
2021/09/03 01:28:47;;;;;;;6.90;5.72;;;18.90;80.00;;;;;;5098897;28;20483;-65
2021/09/03 01:31:13;;;;;;;6.63;5.22;;;18.90;79.60;;;;;;5100954;28;20035;-68
2021/09/03 01:33:38;;;;;;;8.57;5.80;;;18.90;79.70;;;;;;5084747;28;20039;-67
2021/09/03 01:36:04;;;;;;;7.78;5.50;;;19.00;80.00;;;;;;5101901;28;20041;-64
2021/09/03 01:38:30;;;;;;;10.57;5.45;;;19.00;79.80;;;;;;5100960;28;20052;-67
2021/09/03 01:40:56;;;;;;;7.65;5.25;;;19.00;79.60;;;;;;5086383;28;20043;-68
2021/09/03 01:43:21;;;;;;;6.90;4.88;;;19.00;79.30;;;;;;5104424;27;20459;-65
2021/09/03 01:45:47;;;;;;;5.68;4.95;;;18.90;79.30;;;;;;5099982;27;20138;-65
2021/09/03 01:48:13;;;;;;;6.50;5.18;;;18.90;79.60;;;;;;5103107;27;20104;-64
2021/09/03 01:50:39;;;;;;;6.13;5.10;;;18.90;79.70;;;;;;5101192;27;20069;-68
2021/09/03 01:53:04;;;;;;;7.40;5.68;;;18.90;79.50;;;;;;5105420;27;20347;-68
2021/09/03 01:55:30;;;;;;;7.55;5.72;;;18.90;79.30;;;;;;5103389;27;20475;-65
2021/09/03 01:57:58;;;;;;;7.38;6.30;;;18.80;79.50;;;;;;5119684;27;20042;-65
2021/09/03 02:00:23;;;;;;;7.60;5.10;;;18.80;79.20;;;;;;5104702;27;20039;-64
2021/09/03 02:02:49;;;;;;;6.43;4.75;;;18.70;79.30;;;;;;5102687;27;20502;-65
2021/09/03 02:05:15;;;;;;;6.88;5.43;;;18.70;79.50;;;;;;5100967;28;20048;-68
2021/09/03 02:07:40;;;;;;;7.20;5.00;;;18.70;79.70;;;;;;5105422;27;20043;-68
2021/09/03 02:10:07;;;;;;;6.38;4.75;;;18.70;79.40;;;;;;5104114;27;20127;-68
2021/09/03 02:12:32;;;;;;;7.57;5.50;;;18.70;79.50;;;;;;5119314;27;20096;-68
2021/09/03 02:14:58;;;;;;;7.00;5.05;;;18.60;79.40;;;;;;5104663;28;20043;-65
2021/09/03 02:17:24;;;;;;;6.13;4.85;;;18.70;79.50;;;;;;5103683;28;20453;-70
2021/09/03 02:19:50;;;;;;;5.90;4.75;;;18.60;79.80;;;;;;5105990;27;20053;-69
2021/09/03 02:22:15;;;;;;;8.82;5.93;;;18.60;79.90;;;;;;5103660;28;20055;-63
2021/09/03 02:24:41;;;;;;;6.30;4.70;;;18.60;80.10;;;;;;5118609;27;20036;-64
2021/09/03 02:27:07;;;;;;;6.13;4.43;;;18.60;80.30;;;;;;5102692;28;20494;-64
2021/09/03 02:29:32;;;;;;;7.05;5.00;;;18.60;80.20;;;;;;5105915;28;20851;-65
2021/09/03 02:31:58;;;;;;;9.00;5.97;;;18.70;80.10;;;;;;5102981;28;20440;-64
2021/09/03 02:34:24;;;;;;;6.38;5.18;;;18.70;79.70;;;;;;5102240;28;20047;-64
2021/09/03 02:36:50;;;;;;;8.63;4.55;;;18.60;79.70;;;;;;5103405;28;20049;-68
2021/09/03 02:39:16;;;;;;;7.00;4.55;;;18.60;79.90;;;;;;5119717;28;20071;-68
2021/09/03 02:41:42;;;;;;;8.45;4.70;;;18.60;79.90;;;;;;5102256;28;20146;-64
2021/09/03 02:44:07;;;;;;;7.97;4.90;;;18.70;79.80;;;;;;5103942;28;20039;-67
2021/09/03 02:46:33;;;;;;;5.75;3.78;;;18.70;79.60;;;;;;5099616;28;20542;-68
2021/09/03 02:48:58;;;;;;;6.32;4.72;;;18.80;79.50;;;;;;5100702;28;20046;-64
2021/09/03 02:51:24;;;;;;;5.03;4.15;;;18.80;79.20;;;;;;5104202;28;20291;-64
2021/09/03 02:53:50;;;;;;;6.18;4.30;;;18.80;79.10;;;;;;5105143;28;20035;-65
2021/09/03 02:56:15;;;;;;;7.88;3.95;;;18.80;78.80;;;;;;5105058;28;20054;-68
2021/09/03 02:58:41;;;;;;;5.55;3.90;;;18.80;78.90;;;;;;5117645;28;20034;-69
2021/09/03 03:01:07;;;;;;;7.72;4.80;;;18.80;78.90;;;;;;5102777;27;20039;-65
2021/09/03 03:03:33;;;;;;;5.15;3.88;;;18.80;78.90;;;;;;5106155;27;20035;-65
2021/09/03 03:05:58;;;;;;;5.93;4.00;;;18.80;78.60;;;;;;5109481;27;20182;-68
2021/09/03 03:08:24;;;;;;;7.68;4.28;;;18.80;78.50;;;;;;5121605;27;20077;-64
2021/09/03 03:10:50;;;;;;;6.30;4.25;;;18.70;78.40;;;;;;5106475;27;20132;-64
2021/09/03 03:13:26;;;;;;;5.18;3.90;;;18.70;78.50;;;;;;5108256;27;20059;-68
2021/09/03 03:15:53;;;;;;;7.57;4.93;;;18.70;78.70;;;;;;5107344;27;20035;-68
2021/09/03 03:18:19;;;;;;;7.32;4.72;;;18.70;78.80;;;;;;5106016;27;20043;-65
2021/09/03 03:20:46;;;;;;;6.75;4.75;;;18.70;78.80;;;;;;5106069;27;20097;-65
2021/09/03 03:23:12;;;;;;;6.55;4.90;;;18.60;78.20;;;;;;5105626;27;20168;-68
2021/09/03 03:25:37;;;;;;;8.27;4.82;;;18.60;78.40;;;;;;5107782;27;20055;-68
2021/09/03 03:28:03;;;;;;;4.60;4.00;;;18.50;78.90;;;;;;5122210;27;20039;-69
2021/09/03 03:30:29;;;;;;;5.57;3.95;;;18.50;78.80;;;;;;5101139;27;20036;-65
2021/09/03 03:32:55;;;;;;;5.38;3.75;;;18.40;79.30;;;;;;5105036;27;20066;-69
2021/09/03 03:35:22;;;;;;;6.72;4.55;;;18.50;79.50;;;;;;5107755;27;20084;-69
2021/09/03 03:37:48;;;;;;;5.72;3.90;;;18.50;79.20;;;;;;5123906;27;20042;-68
2021/09/03 03:40:15;;;;;;;6.50;4.25;;;18.60;79.10;;;;;;5106044;27;20035;-64
2021/09/03 03:42:40;;;;;;;5.13;3.88;;;18.70;78.80;;;;;;5105396;27;20055;-63
2021/09/03 03:45:06;;;;;;;7.18;4.45;;;18.70;78.70;;;;;;5104910;27;20140;-67
2021/09/03 03:47:32;;;;;;;6.85;4.22;;;18.70;78.10;;;;;;5103190;27;20086;-63
2021/09/03 03:49:58;;;;;;;5.25;3.95;;;18.70;77.60;;;;;;5108219;27;20075;-67
2021/09/03 03:52:23;;;;;;;6.03;4.35;;;18.70;78.00;;;;;;5088721;27;20035;-67
2021/09/03 03:54:49;;;;;;;5.03;4.13;;;18.70;78.10;;;;;;5120971;27;20046;-63
2021/09/03 03:57:14;;;;;;;4.93;3.60;;;18.70;78.10;;;;;;5122059;27;20441;-63
2021/09/03 03:59:40;;;;;;;4.35;3.70;;;18.70;78.00;;;;;;5107693;27;20489;-63
2021/09/03 04:02:06;;;;;;;6.90;4.78;;;18.70;78.00;;;;;;5121024;27;20891;-68
2021/09/03 04:04:31;;;;;;;4.00;3.30;;;18.60;77.80;;;;;;5107683;27;20035;-67
2021/09/03 04:06:57;;;;;;;4.88;3.20;;;18.60;78.20;;;;;;5106626;27;20047;-64
2021/09/03 04:09:23;;;;;;;6.30;3.70;;;18.60;78.50;;;;;;5091676;27;20039;-67
2021/09/03 04:11:50;;;;;;;4.53;3.70;;;18.60;78.40;;;;;;5104550;27;20031;-64
2021/09/03 04:14:16;;;;;;;4.88;3.92;;;18.60;78.30;;;;;;5106999;27;20597;-63
2021/09/03 04:16:42;;;;;;;7.88;5.07;;;18.60;78.20;;;;;;5104306;27;20087;-67
2021/09/03 04:19:08;;;;;;;6.05;4.40;;;18.60;77.90;;;;;;5089612;27;20039;-67
2021/09/03 04:21:33;;;;;;;5.75;4.22;;;18.50;77.90;;;;;;5106924;27;20043;-67
2021/09/03 04:24:00;;;;;;;6.60;4.18;;;18.40;78.10;;;;;;5106728;27;20055;-67
2021/09/03 04:26:25;;;;;;;5.97;4.30;;;18.40;78.60;;;;;;5104926;27;20118;-67
2021/09/03 04:28:51;;;;;;;6.10;4.13;;;18.30;78.50;;;;;;5102148;27;20159;-68
2021/09/03 04:31:17;;;;;;;6.35;3.92;;;18.30;78.90;;;;;;5106359;27;20047;-67
2021/09/03 04:33:42;;;;;;;5.93;4.63;;;18.20;79.00;;;;;;5106344;27;20544;-67
2021/09/03 04:36:08;;;;;;;7.70;5.05;;;18.20;79.20;;;;;;5105407;27;20399;-67
2021/09/03 04:38:34;;;;;;;8.68;4.07;;;18.20;79.00;;;;;;5089507;27;20387;-67
2021/09/03 04:40:59;;;;;;;9.07;3.85;;;18.20;79.10;;;;;;5104603;27;20125;-67
2021/09/03 04:43:25;;;;;;;6.00;4.22;;;18.20;79.80;;;;;;5103790;27;20089;-66
2021/09/03 04:45:51;;;;;;;11.73;3.85;;;18.20;80.10;;;;;;5087116;27;20043;-67
2021/09/03 04:48:16;;;;;;;8.50;4.07;;;18.30;80.10;;;;;;5104734;27;20031;-67
2021/09/03 04:50:42;;;;;;;7.80;4.45;;;18.40;80.00;;;;;;5106554;27;20041;-68
2021/09/03 04:53:08;;;;;;;5.47;3.60;;;18.40;79.70;;;;;;5102005;27;20066;-67
2021/09/03 04:55:34;;;;;;;6.55;4.22;;;18.50;79.50;;;;;;5104392;27;20035;-63
2021/09/03 04:58:00;;;;;;;7.07;4.00;;;18.50;79.40;;;;;;5106516;27;20039;-63
2021/09/03 05:00:25;;;;;;;7.55;4.63;;;18.50;79.10;;;;;;5084211;27;20540;-67
2021/09/03 05:02:51;;;;;;;5.53;4.13;;;18.50;78.70;;;;;;5104074;27;20039;-66
2021/09/03 05:05:18;;;;;;;8.60;4.35;;;18.50;79.00;;;;;;5106073;27;20210;-66
2021/09/03 05:07:44;;;;;;;6.88;4.55;;;18.50;79.20;;;;;;5104478;27;20122;-67
2021/09/03 05:10:11;;;;;;;5.95;3.90;;;18.50;79.50;;;;;;5104233;27;20080;-67
2021/09/03 05:12:38;;;;;;;5.32;3.80;;;18.50;79.30;;;;;;5119928;27;20118;-67
2021/09/03 05:15:16;;;;;;;16.42;6.22;;;18.50;79.20;;;;;;5103682;27;20078;-67
2021/09/03 05:17:47;;;;;;;5.68;4.20;;;18.50;78.20;;;;;;5103787;27;20042;-67
2021/09/03 05:20:13;;;;;;;6.03;3.90;;;18.50;78.70;;;;;;5118999;27;20027;-67
2021/09/03 05:22:39;;;;;;;8.25;3.80;;;18.50;78.70;;;;;;5109487;27;20059;-70
2021/09/03 05:25:05;;;;;;;5.75;3.70;;;18.60;78.70;;;;;;5105497;27;20071;-67
2021/09/03 05:27:31;;;;;;;7.32;4.32;;;18.50;78.60;;;;;;5104071;27;20093;-67
2021/09/03 05:29:56;;;;;;;8.48;6.13;;;18.50;78.50;;;;;;5116801;27;20142;-67
2021/09/03 05:32:22;;;;;;;11.80;8.18;;;18.40;77.80;;;;;;5100264;27;20046;-67
2021/09/03 05:34:49;;;;;;;9.77;5.32;;;18.30;77.40;;;;;;5105802;27;20117;-67
2021/09/03 05:37:15;;;;;;;11.35;4.70;;;18.10;77.80;;;;;;5104453;27;20050;-68
2021/09/03 05:39:40;;;;;;;16.00;8.02;;;18.00;78.90;;;;;;5087416;27;20052;-64
2021/09/03 05:42:06;;;;;;;8.65;4.65;;;17.80;78.00;;;;;;5105785;27;20045;-64
2021/09/03 05:44:32;;;;;;;7.63;5.28;;;17.70;79.20;;;;;;5100372;27;20058;-64
2021/09/03 05:46:58;;;;;;;11.30;7.22;;;17.80;79.90;;;;;;5087747;27;20402;-64
2021/09/03 05:49:23;;;;;;;9.30;5.57;;;17.70;79.00;;;;;;5119078;27;20043;-64
2021/09/03 05:51:49;;;;;;;8.25;5.70;;;17.60;79.90;;;;;;5118981;27;20099;-64
2021/09/03 05:54:14;;;;;;;9.73;4.25;;;17.60;80.50;;;;;;5102150;27;20188;-64
2021/09/03 05:56:40;;;;;;;9.98;5.10;;;17.70;80.70;;;;;;5101313;27;20043;-64
2021/09/03 05:59:06;;;;;;;6.25;4.80;;;17.70;80.60;;;;;;5117594;27;20095;-63
2021/09/03 06:01:32;;;;;;;7.40;4.70;;;17.80;80.50;;;;;;5103867;27;20038;-64
2021/09/03 06:03:58;;;;;;;7.88;5.20;;;17.80;80.60;;;;;;5105050;27;20096;-64
2021/09/03 06:06:23;;;;;;;6.88;5.10;;;17.80;80.90;;;;;;5094608;27;20043;-72
2021/09/03 06:08:52;;;;;;;7.20;4.65;;;17.80;81.00;;;;;;5102023;28;20046;-67
2021/09/03 06:11:20;;;;;;;10.05;5.90;;;17.90;81.20;;;;;;5102268;27;20043;-68
2021/09/03 06:13:47;;;;;;;11.30;5.65;;;18.00;81.00;;;;;;5098957;27;20118;-69
2021/09/03 06:16:13;;;;;;;8.32;6.22;;;18.10;80.80;;;;;;5102521;28;20047;-66
2021/09/03 06:18:38;;;;;;;9.85;5.18;;;18.10;80.40;;;;;;5103627;27;20057;-66
2021/09/03 06:21:04;;;;;;;8.65;5.03;;;18.10;80.40;;;;;;5101476;27;20035;-66
2021/09/03 06:23:29;;;;;;;11.65;5.97;;;18.20;80.60;;;;;;5102218;27;20438;-66
2021/09/03 06:25:55;;;;;;;12.10;6.20;;;18.20;80.50;;;;;;5085358;28;20185;-67
2021/09/03 06:28:21;;;;;;;15.07;5.53;;;18.30;80.30;;;;;;5097503;27;20126;-66
2021/09/03 06:30:46;;;;;;;8.15;4.93;;;18.40;80.10;;;;;;5098633;28;20101;-67
2021/09/03 06:33:12;;;;;;;10.38;4.80;;;18.50;79.90;;;;;;5069250;28;20047;-66
2021/09/03 06:35:38;;;;;;;8.18;4.93;;;18.60;79.50;;;;;;5103071;28;20502;-67
2021/09/03 06:38:04;;;;;;;10.43;5.10;;;18.70;79.00;;;;;;5089958;27;20072;-67
2021/09/03 06:40:29;;;;;;;8.05;5.10;;;18.90;78.60;;;;;;5122077;27;20042;-67
2021/09/03 06:42:55;;;;;;;7.63;4.72;;;19.00;78.10;;;;;;5107351;27;20050;-67
2021/09/03 06:45:24;;;;;;;10.18;5.65;;;19.10;77.80;;;;;;5121082;27;20055;-66
2021/09/03 06:47:50;;;;;;;8.77;5.07;;;19.20;77.50;;;;;;5103732;27;20097;-67
2021/09/03 06:50:16;;;;;;;13.40;5.45;;;19.30;77.20;;;;;;5073386;27;20499;-67
2021/09/03 06:52:42;;;;;;;10.95;5.65;;;19.40;77.00;;;;;;5105850;27;20039;-67
2021/09/03 06:55:08;;;;;;;11.25;6.60;;;19.40;76.70;;;;;;5105751;27;20046;-67
2021/09/03 06:57:34;;;;;;;13.15;6.35;;;19.30;76.70;;;;;;5107687;27;20035;-67
2021/09/03 07:00:00;;;;;;;18.67;7.32;;;19.40;77.90;;;;;;5105870;27;20479;-67
2021/09/03 07:02:26;;;;;;;14.27;6.80;;;19.50;79.40;;;;;;5106755;27;20087;-66
2021/09/03 07:04:52;;;;;;;13.30;6.43;;;19.50;79.80;;;;;;5107618;27;20547;-66
2021/09/03 07:07:18;;;;;;;16.27;6.72;;;19.50;79.30;;;;;;5104818;27;20040;-66
2021/09/03 07:09:43;;;;;;;18.33;7.25;;;19.60;79.50;;;;;;5106209;27;20084;-67
2021/09/03 07:12:09;;;;;;;18.08;7.75;;;19.60;79.20;;;;;;5100670;27;20047;-67
2021/09/03 07:14:35;;;;;;;15.18;6.72;;;19.70;78.80;;;;;;5099749;27;20111;-67
2021/09/03 07:17:00;;;;;;;12.93;6.85;;;19.70;78.30;;;;;;5105126;27;20039;-67
2021/09/03 07:19:26;;;;;;;10.68;6.13;;;19.70;78.10;;;;;;5102306;27;20070;-67
2021/09/03 07:21:52;;;;;;;11.52;6.00;;;19.70;78.00;;;;;;5101665;27;20403;-66
2021/09/03 07:24:17;;;;;;;16.52;7.47;;;19.80;77.90;;;;;;5102902;27;20066;-66
2021/09/03 07:26:43;;;;;;;17.75;6.90;;;19.80;77.80;;;;;;5120015;27;20370;-66
2021/09/03 07:29:09;;;;;;;10.82;6.38;;;19.80;77.90;;;;;;5101135;27;20193;-67
2021/09/03 07:31:34;;;;;;;14.85;6.80;;;19.80;77.90;;;;;;5118971;27;20045;-67
2021/09/03 07:34:00;;;;;;;17.77;8.18;;;19.80;77.90;;;;;;5103210;27;20054;-67
2021/09/03 07:36:26;;;;;;;16.45;7.65;;;19.70;78.00;;;;;;5102293;27;20372;-67
2021/09/03 07:38:52;;;;;;;16.98;9.73;;;19.70;78.00;;;;;;5101584;27;20049;-64
2021/09/03 07:41:18;;;;;;;12.27;6.07;;;19.70;77.90;;;;;;5101612;27;20402;-73
2021/09/03 07:43:43;;;;;;;17.15;8.52;;;19.70;78.10;;;;;;5101641;28;20588;-64
2021/09/03 07:46:10;;;;;;;11.50;6.93;;;19.70;77.90;;;;;;5100342;28;20047;-65
2021/09/03 07:48:36;;;;;;;11.32;6.35;;;19.70;78.00;;;;;;5100430;28;20032;-66
2021/09/03 07:51:02;;;;;;;13.45;6.57;;;19.70;78.00;;;;;;5097898;28;20123;-63
2021/09/03 07:53:28;;;;;;;15.77;6.78;;;19.70;77.90;;;;;;5097424;28;20031;-67
2021/09/03 07:55:53;;;;;;;16.48;7.07;;;19.70;77.90;;;;;;5098301;28;20039;-66
2021/09/03 07:58:19;;;;;;;14.73;8.23;;;19.70;77.60;;;;;;5086319;28;20036;-65
2021/09/03 08:00:45;;;;;;;24.75;7.20;;;19.60;76.50;;;;;;5095407;28;20035;-66
2021/09/03 08:03:10;;;;;;;12.27;5.82;;;19.50;76.20;;;;;;5098535;28;20464;-67
2021/09/03 08:05:37;;;;;;;13.60;6.03;;;19.20;75.80;;;;;;5081554;28;20028;-66
2021/09/03 08:08:07;;;;;;;12.02;5.28;;;19.00;76.10;;;;;;5100744;28;20040;-66
2021/09/03 08:10:34;;;;;;;11.93;5.57;;;18.80;76.50;;;;;;5085143;28;20074;-66
2021/09/03 08:13:01;;;;;;;10.52;4.88;;;18.70;76.80;;;;;;5095813;28;20054;-66
2021/09/03 08:15:28;;;;;;;10.35;6.15;;;18.70;76.80;;;;;;5101144;28;20024;-67
2021/09/03 08:17:54;;;;;;;10.27;5.80;;;18.60;77.90;;;;;;5099152;28;20040;-66
2021/09/03 08:20:20;;;;;;;8.02;5.38;;;18.60;78.50;;;;;;5101020;28;20079;-67
2021/09/03 08:22:48;;;;;;;14.93;6.80;;;18.70;77.90;;;;;;5097666;28;20031;-67
2021/09/03 08:25:14;;;;;;;11.13;6.47;;;18.60;77.10;;;;;;5101138;28;21333;-66
2021/09/03 08:27:40;;;;;;;15.20;6.80;;;18.70;77.60;;;;;;5100736;28;20364;-66
2021/09/03 08:30:07;;;;;;;14.27;6.95;;;18.60;77.60;;;;;;5102795;28;20067;-66
2021/09/03 08:32:33;;;;;;;11.88;6.63;;;18.60;77.80;;;;;;5100104;28;20118;-65
2021/09/03 08:34:59;;;;;;;14.20;6.95;;;18.60;77.40;;;;;;5100346;28;20488;-66
2021/09/03 08:37:25;;;;;;;12.30;7.22;;;18.60;77.50;;;;;;5085951;28;20050;-66
2021/09/03 08:39:51;;;;;;;19.42;8.27;;;18.60;77.90;;;;;;5102396;28;20040;-67
2021/09/03 08:42:17;;;;;;;18.83;8.20;;;18.60;77.90;;;;;;5102187;28;20046;-65
2021/09/03 08:44:44;;;;;;;12.48;7.88;;;18.50;77.60;;;;;;5101696;28;20052;-65
2021/09/03 08:47:11;;;;;;;13.82;7.57;;;18.50;77.50;;;;;;5096638;28;20032;-65
2021/09/03 08:49:37;;;;;;;16.50;7.90;;;18.50;77.70;;;;;;5103173;28;20040;-66
2021/09/03 08:52:03;;;;;;;11.93;7.72;;;18.50;78.20;;;;;;5099577;28;20044;-66
2021/09/03 08:54:28;;;;;;;13.27;7.03;;;18.60;78.30;;;;;;5096666;28;20136;-66
2021/09/03 08:56:54;;;;;;;17.17;8.18;;;18.50;78.20;;;;;;5100649;28;20107;-65
2021/09/03 08:59:20;;;;;;;16.38;8.50;;;18.40;78.10;;;;;;5083236;28;20475;-66
2021/09/03 09:02:16;;;;;;;12.52;7.82;;;18.40;78.60;;;;;;5100987;28;20043;-67
2021/09/03 09:04:44;;;;;;;11.43;6.60;;;18.30;77.90;;;;;;5100967;28;20092;-67
2021/09/03 09:07:10;;;;;;;16.98;7.88;;;18.20;78.30;;;;;;5085611;28;20103;-67
2021/09/03 09:09:40;;;;;;;14.20;7.70;;;18.20;78.00;;;;;;5096514;28;20080;-66
2021/09/03 09:12:17;;;;;;;14.10;7.43;;;18.20;77.80;;;;;;5102562;28;20043;-66
2021/09/03 09:15:02;;;;;;;9.68;6.45;;;18.20;78.20;;;;;;5101992;28;20084;-73
2021/09/03 09:17:40;;;;;;;18.15;6.55;;;18.20;78.60;;;;;;5098597;28;20047;-73
2021/09/03 09:20:18;;;;;;;11.82;5.78;;;18.30;78.90;;;;;;5100673;28;20130;-72
2021/09/03 09:22:59;;;;;;;11.27;5.60;;;18.40;78.20;;;;;;5102197;28;20749;-72
2021/09/03 09:25:31;;;;;;;9.77;6.35;;;18.50;77.80;;;;;;5101655;28;20044;-72
2021/09/03 09:28:19;;;;;;;12.00;5.93;;;18.50;78.20;;;;;;5103151;28;20647;-72
2021/09/03 09:30:46;;;;;;;9.98;5.15;;;18.70;77.80;;;;;;5101887;28;20131;-72
2021/09/03 09:33:18;;;;;;;12.30;6.40;;;18.70;77.50;;;;;;5097509;28;20451;-72
2021/09/03 09:35:46;;;;;;;13.32;6.15;;;18.70;78.00;;;;;;5098032;28;20043;-72
2021/09/03 09:38:13;;;;;;;13.57;6.40;;;18.70;77.60;;;;;;5095799;28;20039;-72
2021/09/03 09:40:49;;;;;;;13.55;6.53;;;18.80;77.10;;;;;;5098789;28;20509;-71
2021/09/03 09:43:35;;;;;;;11.05;5.78;;;18.70;76.70;;;;;;5099676;27;20045;-72
2021/09/03 09:46:15;;;;;;;10.40;5.20;;;18.70;77.20;;;;;;5101044;27;20546;-72
2021/09/03 09:48:51;;;;;;;11.35;6.10;;;18.80;77.50;;;;;;5103710;27;20458;-72
2021/09/03 09:51:38;;;;;;;14.77;6.88;;;18.90;76.80;;;;;;5099158;27;20125;-72
2021/09/03 09:54:10;;;;;;;11.90;6.53;;;18.90;76.00;;;;;;5103636;27;20043;-72
2021/09/03 09:56:39;;;;;;;14.55;6.85;;;18.80;76.10;;;;;;5103820;27;20119;-72
2021/09/03 09:59:07;;;;;;;11.02;6.28;;;18.90;75.70;;;;;;5104541;27;20110;-72
2021/09/03 10:01:35;;;;;;;13.95;7.07;;;19.00;76.20;;;;;;5103624;27;20039;-72
2021/09/03 10:04:05;;;;;;;14.70;6.43;;;19.10;75.20;;;;;;5102529;27;20039;-72
2021/09/03 10:06:33;;;;;;;15.70;7.00;;;19.10;74.70;;;;;;5101448;27;20071;-71
2021/09/03 10:08:59;;;;;;;13.27;7.03;;;19.00;74.90;;;;;;5099301;27;20376;-70
2021/09/03 10:11:26;;;;;;;11.52;7.03;;;19.10;75.40;;;;;;5107174;27;20099;-70
2021/09/03 10:13:53;;;;;;;13.68;6.90;;;19.20;75.40;;;;;;5099630;27;20047;-71
2021/09/03 10:16:19;;;;;;;14.38;8.05;;;19.30;75.40;;;;;;5101042;27;20661;-71
2021/09/03 10:18:49;;;;;;;16.02;7.30;;;19.40;74.80;;;;;;5102480;28;20114;-71
2021/09/03 10:21:15;;;;;;;10.82;6.22;;;19.40;74.30;;;;;;5097063;28;20043;-70
2021/09/03 10:24:05;;;;;;;14.25;7.28;;;19.40;74.50;;;;;;5098164;27;20050;-73
2021/09/03 10:26:33;;;;;;;12.65;7.00;;;19.40;74.20;;;;;;5096436;28;20490;-72
2021/09/03 10:29:33;;;;;;;14.07;7.75;;;19.30;74.70;;;;;;5081603;27;20035;-72
2021/09/03 10:32:08;;;;;;;17.05;7.90;;;19.30;75.00;;;;;;5100408;28;20065;-70
2021/09/03 10:34:43;;;;;;;11.07;6.78;;;19.30;74.30;;;;;;5102822;28;20051;-70
2021/09/03 10:37:15;;;;;;;14.50;7.25;;;19.30;74.70;;;;;;5102869;28;20107;-70
2021/09/03 10:39:57;;;;;;;18.90;7.65;;;19.40;74.70;;;;;;5101883;28;20038;-71
2021/09/03 10:42:38;;;;;;;11.85;8.07;;;19.50;74.10;;;;;;5101425;28;20487;-73
2021/09/03 10:45:10;;;;;;;14.55;7.63;;;19.70;74.30;;;;;;5098681;28;20051;-70
2021/09/03 10:47:39;;;;;;;12.30;7.65;;;19.80;73.50;;;;;;5101590;28;20763;-70
2021/09/03 10:50:29;;;;;;;16.92;8.40;;;20.00;73.20;;;;;;5100606;28;20227;-70
2021/09/03 10:55:57;;;;;;;12.27;7.47;;;20.30;71.80;;;;;;5100569;28;20035;-70
2021/09/03 10:58:45;;;;;;;15.35;8.00;;;20.30;71.60;;;;;;5103627;28;20521;-71
2021/09/03 11:01:10;;;;;;;11.88;7.28;;;20.30;71.70;;;;;;5101460;28;20043;-71
2021/09/03 11:03:54;;;;;;;14.50;7.88;;;20.30;72.70;;;;;;5103817;28;20050;-70
2021/09/03 11:06:23;;;;;;;14.88;8.18;;;20.40;72.50;;;;;;5104223;28;20047;-72
2021/09/03 11:08:58;;;;;;;12.70;8.27;;;20.50;72.60;;;;;;5086618;28;20115;-72
2021/09/03 11:11:25;;;;;;;13.73;7.97;;;20.50;71.90;;;;;;5104200;28;20040;-72
2021/09/03 11:13:53;;;;;;;13.35;8.57;;;20.50;72.00;;;;;;5119951;28;20120;-72
2021/09/03 11:16:38;;;;;;;15.00;8.10;;;20.50;72.20;;;;;;5101534;28;20054;-72
2021/09/03 11:19:13;;;;;;;12.80;8.07;;;20.40;71.00;;;;;;5100171;28;20546;-72
2021/09/03 11:21:46;;;;;;;13.60;7.78;;;20.20;71.10;;;;;;5085022;28;20047;-73
2021/09/03 11:24:13;;;;;;;;;;;20.10;71.20;;;;;;5107624;27;20039;-73
2021/09/03 11:26:39;;;;;;;13.40;7.50;;;20.00;71.30;;;;;;5108318;27;19923;-73
2021/09/03 11:29:16;;;;;;;11.10;7.22;;;19.80;72.90;;;;;;5106683;27;20039;-71
2021/09/03 11:31:59;;;;;;;11.70;7.60;;;20.00;73.60;;;;;;5106221;27;20043;-71
2021/09/03 11:34:55;;;;;;;10.93;7.18;;;20.20;72.80;;;;;;5106579;27;20047;-71
2021/09/03 11:37:44;;;;;;;13.93;7.72;;;20.40;71.60;;;;;;5090590;27;20399;-70
2021/09/03 11:40:10;;;;;;;12.70;7.47;;;20.50;71.10;;;;;;5106624;27;20046;-71
2021/09/03 11:42:41;;;;;;;10.63;6.57;;;20.50;71.70;;;;;;5108060;27;20039;-72
2021/09/03 11:45:17;;;;;;;16.65;8.70;;;20.60;72.00;;;;;;5106935;27;20062;-73
2021/09/03 11:47:50;;;;;;;13.90;8.30;;;20.80;71.00;;;;;;5103753;27;20040;-73
2021/09/03 11:50:26;;;;;;;12.30;8.70;;;20.70;70.60;;;;;;5102184;27;20755;-72
2021/09/03 11:52:53;;;;;;;17.13;10.15;;;20.60;70.60;;;;;;5107169;27;20031;-71
2021/09/03 11:55:19;;;;;;;14.65;9.07;;;20.50;70.60;;;;;;5107225;27;20032;-72
2021/09/03 11:57:52;;;;;;;16.00;8.65;;;20.40;70.50;;;;;;5090894;27;20403;-72
2021/09/03 12:00:29;;;;;;;14.63;8.95;;;20.40;70.30;;;;;;5107702;27;20425;-72
2021/09/03 12:02:56;;;;;;;15.25;9.35;;;20.50;70.10;;;;;;5121516;27;20031;-73
2021/09/03 12:05:22;;;;;;;14.95;8.82;;;20.60;70.60;;;;;;5101435;27;20110;-72
2021/09/03 12:08:02;;;;;;;13.15;8.75;;;20.60;70.80;;;;;;5104712;27;20402;-72
2021/09/03 12:10:36;;;;;;;15.88;9.40;;;20.70;70.10;;;;;;5090153;27;20062;-73
2021/09/03 12:13:06;;;;;;;12.30;8.50;;;20.80;70.50;;;;;;5104072;27;20035;-73
2021/09/03 12:15:32;;;;;;;11.65;7.95;;;20.90;70.40;;;;;;5101222;27;20391;-73
2021/09/03 12:17:57;;;;;;;11.90;8.07;;;21.10;70.50;;;;;;5108115;27;20052;-73
2021/09/03 12:20:23;;;;;;;13.10;8.18;;;21.20;70.60;;;;;;5105774;27;20542;-73
2021/09/03 12:22:54;;;;;;;12.70;8.35;;;21.50;70.20;;;;;;5088241;27;20142;-73
2021/09/03 12:25:34;;;;;;;14.00;8.93;;;21.70;69.00;;;;;;5120414;27;20364;-73
2021/09/03 12:28:15;;;;;;;11.07;7.75;;;21.70;67.90;;;;;;5100701;27;20222;-74
2021/09/03 12:30:42;;;;;;;14.15;8.43;;;21.70;68.80;;;;;;5083726;27;20109;-73
2021/09/03 12:33:28;;;;;;;12.25;8.43;;;21.60;68.00;;;;;;5103193;27;20386;-72
2021/09/03 12:35:56;;;;;;;15.82;9.25;;;21.60;68.50;;;;;;5103360;27;20088;-71
2021/09/03 12:38:31;;;;;;;15.80;9.15;;;21.60;68.50;;;;;;5105966;27;20046;-72
2021/09/03 12:41:30;;;;;;;10.40;8.15;;;21.60;67.70;;;;;;5104428;27;20390;-73
2021/09/03 12:44:06;;;;;;;17.55;10.05;;;21.50;68.60;;;;;;5101721;27;20070;-73
2021/09/03 12:46:43;;;;;;;17.95;9.50;;;21.40;68.70;;;;;;5106811;27;20348;-72
2021/09/03 12:49:12;;;;;;;15.13;8.50;;;21.40;69.30;;;;;;5105724;27;20031;-73
2021/09/03 12:51:43;;;;;;;11.93;8.35;;;21.30;68.60;;;;;;5084304;27;20036;-73